sensor_id;sensor_type;location;lat;lon;timestamp;P1;durP1;ratioP1;P2;durP2;ratioP2
75450;SDS011;64029;48.244;9.188;2023-12-07T00:01:33;31.17;;;16.17;;
75450;SDS011;64029;48.244;9.188;2023-12-07T00:03:59;25.90;;;15.50;;
75450;SDS011;64029;48.244;9.188;2023-12-07T00:06:27;28.07;;;16.10;;
75450;SDS011;64029;48.244;9.188;2023-12-07T00:08:54;29.43;;;16.30;;
75450;SDS011;64029;48.244;9.188;2023-12-07T00:11:21;23.17;;;14.20;;
75450;SDS011;64029;48.244;9.188;2023-12-07T00:13:48;26.10;;;15.27;;
75450;SDS011;64029;48.244;9.188;2023-12-07T00:16:15;31.80;;;17.60;;
75450;SDS011;64029;48.244;9.188;2023-12-07T00:18:42;27.70;;;13.83;;
75450;SDS011;64029;48.244;9.188;2023-12-07T00:21:08;27.67;;;15.20;;
75450;SDS011;64029;48.244;9.188;2023-12-07T00:23:37;21.73;;;13.30;;
75450;SDS011;64029;48.244;9.188;2023-12-07T00:26:04;20.73;;;12.27;;
75450;SDS011;64029;48.244;9.188;2023-12-07T00:28:31;19.17;;;12.00;;
75450;SDS011;64029;48.244;9.188;2023-12-07T00:30:58;18.23;;;11.67;;
75450;SDS011;64029;48.244;9.188;2023-12-07T00:33:24;22.60;;;12.87;;
75450;SDS011;64029;48.244;9.188;2023-12-07T00:35:51;18.97;;;11.70;;
75450;SDS011;64029;48.244;9.188;2023-12-07T00:38:18;19.13;;;10.80;;
75450;SDS011;64029;48.244;9.188;2023-12-07T00:40:47;15.53;;;11.03;;
75450;SDS011;64029;48.244;9.188;2023-12-07T00:43:14;16.23;;;10.40;;
75450;SDS011;64029;48.244;9.188;2023-12-07T00:45:42;14.80;;;9.90;;
75450;SDS011;64029;48.244;9.188;2023-12-07T00:48:09;19.03;;;10.63;;
75450;SDS011;64029;48.244;9.188;2023-12-07T00:50:36;15.20;;;9.93;;
75450;SDS011;64029;48.244;9.188;2023-12-07T00:53:02;18.07;;;11.43;;
75450;SDS011;64029;48.244;9.188;2023-12-07T00:55:29;20.57;;;12.60;;
75450;SDS011;64029;48.244;9.188;2023-12-07T00:57:58;19.23;;;11.90;;
75450;SDS011;64029;48.244;9.188;2023-12-07T01:00:26;17.50;;;10.60;;
75450;SDS011;64029;48.244;9.188;2023-12-07T01:02:53;15.70;;;10.30;;
75450;SDS011;64029;48.244;9.188;2023-12-07T01:05:20;18.70;;;10.63;;
75450;SDS011;64029;48.244;9.188;2023-12-07T01:07:47;21.80;;;11.17;;
75450;SDS011;64029;48.244;9.188;2023-12-07T01:10:13;18.47;;;11.63;;
75450;SDS011;64029;48.244;9.188;2023-12-07T01:12:40;19.90;;;11.17;;
75450;SDS011;64029;48.244;9.188;2023-12-07T01:15:09;14.50;;;9.90;;
75450;SDS011;64029;48.244;9.188;2023-12-07T01:17:35;19.03;;;9.90;;
75450;SDS011;64029;48.244;9.188;2023-12-07T01:20:03;23.80;;;11.77;;
75450;SDS011;64029;48.244;9.188;2023-12-07T01:22:32;21.90;;;11.73;;
75450;SDS011;64029;48.244;9.188;2023-12-07T01:24:59;28.03;;;12.40;;
75450;SDS011;64029;48.244;9.188;2023-12-07T01:27:26;17.97;;;11.13;;
75450;SDS011;64029;48.244;9.188;2023-12-07T01:29:52;22.60;;;13.20;;
75450;SDS011;64029;48.244;9.188;2023-12-07T01:32:20;23.03;;;13.30;;
75450;SDS011;64029;48.244;9.188;2023-12-07T01:34:48;19.83;;;12.03;;
75450;SDS011;64029;48.244;9.188;2023-12-07T01:37:14;24.77;;;13.03;;
75450;SDS011;64029;48.244;9.188;2023-12-07T01:39:42;24.63;;;12.57;;
75450;SDS011;64029;48.244;9.188;2023-12-07T01:42:09;27.40;;;14.47;;
75450;SDS011;64029;48.244;9.188;2023-12-07T01:44:37;28.17;;;14.57;;
75450;SDS011;64029;48.244;9.188;2023-12-07T01:47:04;30.97;;;15.50;;
75450;SDS011;64029;48.244;9.188;2023-12-07T01:49:34;22.67;;;12.50;;
75450;SDS011;64029;48.244;9.188;2023-12-07T01:52:01;18.50;;;10.43;;
75450;SDS011;64029;48.244;9.188;2023-12-07T01:54:29;22.37;;;11.33;;
75450;SDS011;64029;48.244;9.188;2023-12-07T01:56:56;20.70;;;11.17;;
75450;SDS011;64029;48.244;9.188;2023-12-07T01:59:23;22.70;;;11.63;;
75450;SDS011;64029;48.244;9.188;2023-12-07T02:01:50;20.33;;;10.90;;
75450;SDS011;64029;48.244;9.188;2023-12-07T02:04:17;16.60;;;10.30;;
75450;SDS011;64029;48.244;9.188;2023-12-07T02:06:46;22.60;;;10.80;;
75450;SDS011;64029;48.244;9.188;2023-12-07T02:09:13;20.53;;;10.20;;
75450;SDS011;64029;48.244;9.188;2023-12-07T02:11:39;20.50;;;9.83;;
75450;SDS011;64029;48.244;9.188;2023-12-07T02:14:06;17.00;;;9.53;;
75450;SDS011;64029;48.244;9.188;2023-12-07T02:16:35;20.17;;;10.60;;
75450;SDS011;64029;48.244;9.188;2023-12-07T02:19:11;15.23;;;9.90;;
75450;SDS011;64029;48.244;9.188;2023-12-07T02:21:53;19.53;;;10.90;;
75450;SDS011;64029;48.244;9.188;2023-12-07T02:24:25;18.73;;;10.90;;
75450;SDS011;64029;48.244;9.188;2023-12-07T02:26:55;18.00;;;10.37;;
75450;SDS011;64029;48.244;9.188;2023-12-07T02:29:22;18.00;;;11.90;;
75450;SDS011;64029;48.244;9.188;2023-12-07T02:31:49;16.23;;;10.33;;
75450;SDS011;64029;48.244;9.188;2023-12-07T02:34:15;18.63;;;9.80;;
75450;SDS011;64029;48.244;9.188;2023-12-07T02:36:44;17.70;;;9.37;;
75450;SDS011;64029;48.244;9.188;2023-12-07T02:39:14;20.40;;;11.30;;
75450;SDS011;64029;48.244;9.188;2023-12-07T02:41:42;19.83;;;11.80;;
75450;SDS011;64029;48.244;9.188;2023-12-07T02:44:13;17.33;;;10.20;;
75450;SDS011;64029;48.244;9.188;2023-12-07T02:46:40;16.80;;;9.87;;
75450;SDS011;64029;48.244;9.188;2023-12-07T02:49:07;20.67;;;11.13;;
75450;SDS011;64029;48.244;9.188;2023-12-07T02:51:34;22.87;;;10.33;;
75450;SDS011;64029;48.244;9.188;2023-12-07T02:54:01;18.73;;;11.10;;
75450;SDS011;64029;48.244;9.188;2023-12-07T02:56:28;24.70;;;11.90;;
75450;SDS011;64029;48.244;9.188;2023-12-07T02:58:55;25.47;;;12.53;;
75450;SDS011;64029;48.244;9.188;2023-12-07T03:01:22;19.50;;;11.23;;
75450;SDS011;64029;48.244;9.188;2023-12-07T03:03:49;20.73;;;11.07;;
75450;SDS011;64029;48.244;9.188;2023-12-07T03:06:15;20.33;;;10.90;;
75450;SDS011;64029;48.244;9.188;2023-12-07T03:08:44;22.00;;;11.10;;
75450;SDS011;64029;48.244;9.188;2023-12-07T03:11:11;15.63;;;9.53;;
75450;SDS011;64029;48.244;9.188;2023-12-07T03:13:38;19.47;;;9.60;;
75450;SDS011;64029;48.244;9.188;2023-12-07T03:16:06;20.27;;;10.63;;
75450;SDS011;64029;48.244;9.188;2023-12-07T03:18:36;18.27;;;9.90;;
75450;SDS011;64029;48.244;9.188;2023-12-07T03:21:03;19.43;;;10.40;;
75450;SDS011;64029;48.244;9.188;2023-12-07T03:23:30;24.40;;;13.00;;
75450;SDS011;64029;48.244;9.188;2023-12-07T03:25:57;20.53;;;11.90;;
75450;SDS011;64029;48.244;9.188;2023-12-07T03:28:23;17.10;;;11.40;;
75450;SDS011;64029;48.244;9.188;2023-12-07T03:30:50;21.87;;;10.63;;
75450;SDS011;64029;48.244;9.188;2023-12-07T03:33:17;23.77;;;12.17;;
75450;SDS011;64029;48.244;9.188;2023-12-07T03:35:45;23.17;;;12.33;;
75450;SDS011;64029;48.244;9.188;2023-12-07T03:38:12;17.83;;;10.33;;
75450;SDS011;64029;48.244;9.188;2023-12-07T03:40:38;19.70;;;10.50;;
75450;SDS011;64029;48.244;9.188;2023-12-07T03:43:05;22.00;;;11.60;;
75450;SDS011;64029;48.244;9.188;2023-12-07T03:45:31;22.13;;;11.93;;
75450;SDS011;64029;48.244;9.188;2023-12-07T03:47:58;19.57;;;11.70;;
75450;SDS011;64029;48.244;9.188;2023-12-07T03:50:25;21.50;;;11.10;;
75450;SDS011;64029;48.244;9.188;2023-12-07T03:52:53;19.70;;;10.73;;
75450;SDS011;64029;48.244;9.188;2023-12-07T03:55:19;18.33;;;10.27;;
75450;SDS011;64029;48.244;9.188;2023-12-07T03:57:46;16.90;;;10.00;;
75450;SDS011;64029;48.244;9.188;2023-12-07T04:00:13;15.30;;;8.40;;
75450;SDS011;64029;48.244;9.188;2023-12-07T04:02:40;15.03;;;8.00;;
75450;SDS011;64029;48.244;9.188;2023-12-07T04:05:07;11.20;;;7.47;;
75450;SDS011;64029;48.244;9.188;2023-12-07T04:07:34;11.40;;;7.40;;
75450;SDS011;64029;48.244;9.188;2023-12-07T04:10:02;9.50;;;6.83;;
75450;SDS011;64029;48.244;9.188;2023-12-07T04:12:31;11.27;;;7.90;;
75450;SDS011;64029;48.244;9.188;2023-12-07T04:14:58;10.83;;;7.10;;
75450;SDS011;64029;48.244;9.188;2023-12-07T04:17:25;10.47;;;7.10;;
75450;SDS011;64029;48.244;9.188;2023-12-07T04:19:52;15.50;;;7.73;;
75450;SDS011;64029;48.244;9.188;2023-12-07T04:22:18;13.70;;;8.10;;
75450;SDS011;64029;48.244;9.188;2023-12-07T04:24:45;8.83;;;7.27;;
75450;SDS011;64029;48.244;9.188;2023-12-07T04:27:13;14.77;;;8.80;;
75450;SDS011;64029;48.244;9.188;2023-12-07T04:29:40;11.73;;;7.97;;
75450;SDS011;64029;48.244;9.188;2023-12-07T04:32:07;11.17;;;7.73;;
75450;SDS011;64029;48.244;9.188;2023-12-07T04:34:34;12.87;;;7.20;;
75450;SDS011;64029;48.244;9.188;2023-12-07T04:37:01;15.00;;;8.60;;
75450;SDS011;64029;48.244;9.188;2023-12-07T04:39:28;9.90;;;6.77;;
75450;SDS011;64029;48.244;9.188;2023-12-07T04:41:55;10.37;;;6.53;;
75450;SDS011;64029;48.244;9.188;2023-12-07T04:44:23;10.40;;;7.40;;
75450;SDS011;64029;48.244;9.188;2023-12-07T04:46:51;11.27;;;7.97;;
75450;SDS011;64029;48.244;9.188;2023-12-07T04:49:18;14.30;;;8.40;;
75450;SDS011;64029;48.244;9.188;2023-12-07T04:51:45;11.00;;;7.20;;
75450;SDS011;64029;48.244;9.188;2023-12-07T04:54:12;15.10;;;6.80;;
75450;SDS011;64029;48.244;9.188;2023-12-07T04:56:39;7.80;;;6.20;;
75450;SDS011;64029;48.244;9.188;2023-12-07T04:59:06;8.33;;;6.10;;
75450;SDS011;64029;48.244;9.188;2023-12-07T05:01:35;8.80;;;4.73;;
75450;SDS011;64029;48.244;9.188;2023-12-07T05:04:02;7.27;;;5.40;;
75450;SDS011;64029;48.244;9.188;2023-12-07T05:06:29;7.80;;;5.77;;
75450;SDS011;64029;48.244;9.188;2023-12-07T05:08:56;9.30;;;6.33;;
75450;SDS011;64029;48.244;9.188;2023-12-07T05:11:23;11.80;;;7.30;;
75450;SDS011;64029;48.244;9.188;2023-12-07T05:13:50;14.33;;;8.30;;
75450;SDS011;64029;48.244;9.188;2023-12-07T05:16:17;15.03;;;9.97;;
75450;SDS011;64029;48.244;9.188;2023-12-07T05:18:45;20.27;;;12.03;;
75450;SDS011;64029;48.244;9.188;2023-12-07T05:21:12;16.90;;;7.90;;
75450;SDS011;64029;48.244;9.188;2023-12-07T05:23:39;10.60;;;6.37;;
75450;SDS011;64029;48.244;9.188;2023-12-07T05:26:06;11.50;;;6.80;;
75450;SDS011;64029;48.244;9.188;2023-12-07T05:28:33;10.57;;;5.50;;
75450;SDS011;64029;48.244;9.188;2023-12-07T05:31:00;6.63;;;4.70;;
75450;SDS011;64029;48.244;9.188;2023-12-07T05:33:26;8.40;;;5.50;;
75450;SDS011;64029;48.244;9.188;2023-12-07T05:35:54;8.00;;;5.10;;
75450;SDS011;64029;48.244;9.188;2023-12-07T05:38:21;7.73;;;5.83;;
75450;SDS011;64029;48.244;9.188;2023-12-07T05:40:48;9.40;;;6.50;;
75450;SDS011;64029;48.244;9.188;2023-12-07T05:43:15;9.30;;;7.47;;
75450;SDS011;64029;48.244;9.188;2023-12-07T05:45:41;15.50;;;9.10;;
75450;SDS011;64029;48.244;9.188;2023-12-07T05:48:09;14.20;;;8.53;;
75450;SDS011;64029;48.244;9.188;2023-12-07T05:50:37;17.63;;;8.67;;
75450;SDS011;64029;48.244;9.188;2023-12-07T05:53:06;13.67;;;7.97;;
75450;SDS011;64029;48.244;9.188;2023-12-07T05:55:34;25.80;;;8.67;;
75450;SDS011;64029;48.244;9.188;2023-12-07T05:58:00;13.80;;;9.67;;
75450;SDS011;64029;48.244;9.188;2023-12-07T06:00:28;13.67;;;8.60;;
75450;SDS011;64029;48.244;9.188;2023-12-07T06:02:56;9.30;;;7.00;;
75450;SDS011;64029;48.244;9.188;2023-12-07T06:05:23;13.10;;;7.87;;
75450;SDS011;64029;48.244;9.188;2023-12-07T06:07:50;21.53;;;9.00;;
75450;SDS011;64029;48.244;9.188;2023-12-07T06:10:19;12.23;;;8.33;;
75450;SDS011;64029;48.244;9.188;2023-12-07T06:12:46;16.90;;;10.80;;
75450;SDS011;64029;48.244;9.188;2023-12-07T06:15:13;21.33;;;13.47;;
75450;SDS011;64029;48.244;9.188;2023-12-07T06:17:40;19.10;;;11.60;;
75450;SDS011;64029;48.244;9.188;2023-12-07T06:20:07;13.73;;;10.57;;
75450;SDS011;64029;48.244;9.188;2023-12-07T06:22:35;18.60;;;11.27;;
75450;SDS011;64029;48.244;9.188;2023-12-07T06:25:02;15.07;;;9.77;;
75450;SDS011;64029;48.244;9.188;2023-12-07T06:27:30;15.40;;;10.20;;
75450;SDS011;64029;48.244;9.188;2023-12-07T06:29:59;13.80;;;10.63;;
75450;SDS011;64029;48.244;9.188;2023-12-07T06:32:25;13.30;;;10.97;;
75450;SDS011;64029;48.244;9.188;2023-12-07T06:34:52;10.33;;;7.10;;
75450;SDS011;64029;48.244;9.188;2023-12-07T06:37:19;10.37;;;6.63;;
75450;SDS011;64029;48.244;9.188;2023-12-07T06:39:46;12.93;;;9.43;;
75450;SDS011;64029;48.244;9.188;2023-12-07T06:42:14;12.60;;;10.57;;
75450;SDS011;64029;48.244;9.188;2023-12-07T06:44:45;10.80;;;8.70;;
75450;SDS011;64029;48.244;9.188;2023-12-07T06:47:13;10.37;;;7.97;;
75450;SDS011;64029;48.244;9.188;2023-12-07T06:49:40;9.17;;;7.00;;
75450;SDS011;64029;48.244;9.188;2023-12-07T06:52:07;15.43;;;7.97;;
75450;SDS011;64029;48.244;9.188;2023-12-07T06:54:36;27.00;;;16.03;;
75450;SDS011;64029;48.244;9.188;2023-12-07T06:57:03;46.67;;;25.30;;
75450;SDS011;64029;48.244;9.188;2023-12-07T06:59:31;48.23;;;24.07;;
75450;SDS011;64029;48.244;9.188;2023-12-07T07:02:00;29.43;;;17.40;;
75450;SDS011;64029;48.244;9.188;2023-12-07T07:04:27;18.67;;;12.40;;
75450;SDS011;64029;48.244;9.188;2023-12-07T07:06:54;16.30;;;10.40;;
75450;SDS011;64029;48.244;9.188;2023-12-07T07:09:21;11.97;;;8.00;;
75450;SDS011;64029;48.244;9.188;2023-12-07T07:11:48;12.33;;;8.40;;
75450;SDS011;64029;48.244;9.188;2023-12-07T07:14:15;12.90;;;9.30;;
75450;SDS011;64029;48.244;9.188;2023-12-07T07:16:42;9.73;;;7.17;;
75450;SDS011;64029;48.244;9.188;2023-12-07T07:19:10;9.20;;;7.20;;
75450;SDS011;64029;48.244;9.188;2023-12-07T07:21:37;10.60;;;6.07;;
75450;SDS011;64029;48.244;9.188;2023-12-07T07:24:04;8.53;;;5.70;;
75450;SDS011;64029;48.244;9.188;2023-12-07T07:26:31;6.53;;;4.47;;
75450;SDS011;64029;48.244;9.188;2023-12-07T07:28:58;6.63;;;4.67;;
75450;SDS011;64029;48.244;9.188;2023-12-07T07:31:25;8.50;;;5.83;;
75450;SDS011;64029;48.244;9.188;2023-12-07T07:33:52;9.90;;;7.80;;
75450;SDS011;64029;48.244;9.188;2023-12-07T07:36:22;8.17;;;6.33;;
75450;SDS011;64029;48.244;9.188;2023-12-07T07:38:49;13.73;;;8.17;;
75450;SDS011;64029;48.244;9.188;2023-12-07T07:41:16;12.50;;;7.73;;
75450;SDS011;64029;48.244;9.188;2023-12-07T07:43:43;7.80;;;7.00;;
75450;SDS011;64029;48.244;9.188;2023-12-07T07:46:10;9.80;;;6.40;;
75450;SDS011;64029;48.244;9.188;2023-12-07T07:48:36;10.43;;;6.60;;
75450;SDS011;64029;48.244;9.188;2023-12-07T07:51:04;11.73;;;6.80;;
75450;SDS011;64029;48.244;9.188;2023-12-07T07:53:32;8.67;;;7.63;;
75450;SDS011;64029;48.244;9.188;2023-12-07T07:55:59;14.30;;;7.57;;
75450;SDS011;64029;48.244;9.188;2023-12-07T07:58:26;9.60;;;7.67;;
75450;SDS011;64029;48.244;9.188;2023-12-07T08:00:53;16.63;;;9.80;;
75450;SDS011;64029;48.244;9.188;2023-12-07T08:03:19;17.27;;;9.63;;
75450;SDS011;64029;48.244;9.188;2023-12-07T08:05:46;14.73;;;9.80;;
75450;SDS011;64029;48.244;9.188;2023-12-07T08:08:13;14.27;;;8.67;;
75450;SDS011;64029;48.244;9.188;2023-12-07T08:10:41;15.53;;;8.97;;
75450;SDS011;64029;48.244;9.188;2023-12-07T08:13:08;14.60;;;9.17;;
75450;SDS011;64029;48.244;9.188;2023-12-07T08:15:35;12.53;;;8.67;;
75450;SDS011;64029;48.244;9.188;2023-12-07T08:18:02;11.03;;;8.03;;
75450;SDS011;64029;48.244;9.188;2023-12-07T08:20:29;8.77;;;6.10;;
75450;SDS011;64029;48.244;9.188;2023-12-07T08:22:55;13.70;;;8.77;;
75450;SDS011;64029;48.244;9.188;2023-12-07T08:25:22;14.63;;;8.47;;
75450;SDS011;64029;48.244;9.188;2023-12-07T08:27:50;14.43;;;7.40;;
75450;SDS011;64029;48.244;9.188;2023-12-07T08:30:17;10.40;;;6.60;;
75450;SDS011;64029;48.244;9.188;2023-12-07T08:32:45;16.13;;;7.40;;
75450;SDS011;64029;48.244;9.188;2023-12-07T08:35:11;12.70;;;7.70;;
75450;SDS011;64029;48.244;9.188;2023-12-07T08:37:39;13.10;;;7.27;;
75450;SDS011;64029;48.244;9.188;2023-12-07T08:40:06;11.27;;;6.90;;
75450;SDS011;64029;48.244;9.188;2023-12-07T08:42:35;10.77;;;6.93;;
75450;SDS011;64029;48.244;9.188;2023-12-07T08:45:03;7.77;;;5.90;;
75450;SDS011;64029;48.244;9.188;2023-12-07T08:47:31;9.10;;;6.40;;
75450;SDS011;64029;48.244;9.188;2023-12-07T08:49:57;9.33;;;6.50;;
75450;SDS011;64029;48.244;9.188;2023-12-07T08:52:24;7.47;;;5.20;;
75450;SDS011;64029;48.244;9.188;2023-12-07T08:54:52;8.30;;;6.30;;
75450;SDS011;64029;48.244;9.188;2023-12-07T08:57:19;8.60;;;6.30;;
75450;SDS011;64029;48.244;9.188;2023-12-07T08:59:46;11.63;;;5.90;;
75450;SDS011;64029;48.244;9.188;2023-12-07T09:02:14;7.73;;;5.17;;
75450;SDS011;64029;48.244;9.188;2023-12-07T09:04:41;4.67;;;3.80;;
75450;SDS011;64029;48.244;9.188;2023-12-07T09:07:08;5.97;;;4.27;;
75450;SDS011;64029;48.244;9.188;2023-12-07T09:09:36;6.57;;;5.10;;
75450;SDS011;64029;48.244;9.188;2023-12-07T09:12:03;11.00;;;7.70;;
75450;SDS011;64029;48.244;9.188;2023-12-07T09:14:30;15.47;;;9.43;;
75450;SDS011;64029;48.244;9.188;2023-12-07T09:16:57;15.10;;;10.40;;
75450;SDS011;64029;48.244;9.188;2023-12-07T09:19:25;10.07;;;7.70;;
75450;SDS011;64029;48.244;9.188;2023-12-07T09:21:52;9.50;;;7.20;;
75450;SDS011;64029;48.244;9.188;2023-12-07T09:24:19;12.43;;;6.60;;
75450;SDS011;64029;48.244;9.188;2023-12-07T09:26:46;12.20;;;7.50;;
75450;SDS011;64029;48.244;9.188;2023-12-07T09:29:14;7.40;;;6.07;;
75450;SDS011;64029;48.244;9.188;2023-12-07T09:31:40;11.47;;;7.47;;
75450;SDS011;64029;48.244;9.188;2023-12-07T09:34:07;8.93;;;5.93;;
75450;SDS011;64029;48.244;9.188;2023-12-07T09:36:35;8.40;;;6.27;;
75450;SDS011;64029;48.244;9.188;2023-12-07T09:39:03;9.67;;;6.97;;
75450;SDS011;64029;48.244;9.188;2023-12-07T09:41:29;12.30;;;7.27;;
75450;SDS011;64029;48.244;9.188;2023-12-07T09:43:56;15.10;;;7.80;;
75450;SDS011;64029;48.244;9.188;2023-12-07T09:46:25;16.60;;;8.80;;
75450;SDS011;64029;48.244;9.188;2023-12-07T09:48:53;14.10;;;8.27;;
75450;SDS011;64029;48.244;9.188;2023-12-07T09:51:20;13.93;;;8.90;;
75450;SDS011;64029;48.244;9.188;2023-12-07T09:53:49;19.30;;;9.87;;
75450;SDS011;64029;48.244;9.188;2023-12-07T09:56:18;21.90;;;9.17;;
75450;SDS011;64029;48.244;9.188;2023-12-07T09:58:45;17.67;;;8.90;;
75450;SDS011;64029;48.244;9.188;2023-12-07T10:01:12;18.30;;;10.83;;
75450;SDS011;64029;48.244;9.188;2023-12-07T10:03:40;14.73;;;9.03;;
75450;SDS011;64029;48.244;9.188;2023-12-07T10:06:08;23.27;;;11.60;;
75450;SDS011;64029;48.244;9.188;2023-12-07T10:08:34;20.23;;;11.20;;
75450;SDS011;64029;48.244;9.188;2023-12-07T10:11:04;24.00;;;12.53;;
75450;SDS011;64029;48.244;9.188;2023-12-07T10:13:33;37.53;;;17.10;;
75450;SDS011;64029;48.244;9.188;2023-12-07T10:16:10;29.20;;;15.90;;
75450;SDS011;64029;48.244;9.188;2023-12-07T10:18:38;28.27;;;15.97;;
75450;SDS011;64029;48.244;9.188;2023-12-07T10:21:06;24.00;;;12.93;;
75450;SDS011;64029;48.244;9.188;2023-12-07T10:23:34;20.33;;;12.10;;
75450;SDS011;64029;48.244;9.188;2023-12-07T10:26:01;23.90;;;12.67;;
75450;SDS011;64029;48.244;9.188;2023-12-07T10:28:31;18.10;;;9.63;;
75450;SDS011;64029;48.244;9.188;2023-12-07T10:31:00;20.57;;;10.00;;
75450;SDS011;64029;48.244;9.188;2023-12-07T10:33:27;16.60;;;9.80;;
75450;SDS011;64029;48.244;9.188;2023-12-07T10:35:54;15.10;;;8.97;;
75450;SDS011;64029;48.244;9.188;2023-12-07T10:38:21;10.97;;;6.90;;
75450;SDS011;64029;48.244;9.188;2023-12-07T10:40:48;11.93;;;7.93;;
75450;SDS011;64029;48.244;9.188;2023-12-07T10:43:29;11.47;;;6.80;;
75450;SDS011;64029;48.244;9.188;2023-12-07T10:45:57;10.37;;;7.30;;
75450;SDS011;64029;48.244;9.188;2023-12-07T10:48:25;10.37;;;7.60;;
75450;SDS011;64029;48.244;9.188;2023-12-07T10:50:53;15.53;;;8.03;;
75450;SDS011;64029;48.244;9.188;2023-12-07T10:53:24;13.43;;;8.63;;
75450;SDS011;64029;48.244;9.188;2023-12-07T10:55:55;11.27;;;7.70;;
75450;SDS011;64029;48.244;9.188;2023-12-07T10:58:26;12.40;;;7.70;;
75450;SDS011;64029;48.244;9.188;2023-12-07T11:00:54;13.83;;;8.43;;
75450;SDS011;64029;48.244;9.188;2023-12-07T11:03:22;12.37;;;7.80;;
75450;SDS011;64029;48.244;9.188;2023-12-07T11:05:50;15.53;;;8.73;;
75450;SDS011;64029;48.244;9.188;2023-12-07T11:08:20;13.77;;;9.40;;
75450;SDS011;64029;48.244;9.188;2023-12-07T11:10:53;11.60;;;8.10;;
75450;SDS011;64029;48.244;9.188;2023-12-07T11:13:29;11.60;;;7.90;;
75450;SDS011;64029;48.244;9.188;2023-12-07T11:15:58;14.27;;;7.80;;
75450;SDS011;64029;48.244;9.188;2023-12-07T11:18:26;11.80;;;8.13;;
75450;SDS011;64029;48.244;9.188;2023-12-07T11:20:53;12.20;;;7.77;;
75450;SDS011;64029;48.244;9.188;2023-12-07T11:23:21;13.77;;;8.13;;
75450;SDS011;64029;48.244;9.188;2023-12-07T11:25:48;12.27;;;8.93;;
75450;SDS011;64029;48.244;9.188;2023-12-07T11:28:17;10.13;;;7.67;;
75450;SDS011;64029;48.244;9.188;2023-12-07T11:30:44;12.00;;;7.60;;
75450;SDS011;64029;48.244;9.188;2023-12-07T11:33:14;12.63;;;6.97;;
75450;SDS011;64029;48.244;9.188;2023-12-07T11:38:30;12.90;;;8.00;;
75450;SDS011;64029;48.244;9.188;2023-12-07T11:40:57;14.13;;;7.60;;
75450;SDS011;64029;48.244;9.188;2023-12-07T11:43:31;9.07;;;6.57;;
75450;SDS011;64029;48.244;9.188;2023-12-07T11:46:04;10.60;;;6.63;;
75450;SDS011;64029;48.244;9.188;2023-12-07T11:48:34;12.53;;;7.50;;
75450;SDS011;64029;48.244;9.188;2023-12-07T11:51:01;10.70;;;6.67;;
75450;SDS011;64029;48.244;9.188;2023-12-07T11:53:29;10.93;;;7.20;;
75450;SDS011;64029;48.244;9.188;2023-12-07T11:55:57;11.10;;;7.30;;
75450;SDS011;64029;48.244;9.188;2023-12-07T11:58:25;11.53;;;6.87;;
75450;SDS011;64029;48.244;9.188;2023-12-07T12:00:52;11.27;;;7.10;;
75450;SDS011;64029;48.244;9.188;2023-12-07T12:03:19;10.67;;;6.53;;
75450;SDS011;64029;48.244;9.188;2023-12-07T12:05:48;10.40;;;6.50;;
75450;SDS011;64029;48.244;9.188;2023-12-07T12:08:15;8.00;;;6.47;;
75450;SDS011;64029;48.244;9.188;2023-12-07T12:10:42;9.30;;;6.33;;
75450;SDS011;64029;48.244;9.188;2023-12-07T12:13:09;10.00;;;5.70;;
75450;SDS011;64029;48.244;9.188;2023-12-07T12:15:37;8.87;;;5.70;;
75450;SDS011;64029;48.244;9.188;2023-12-07T12:18:04;6.20;;;4.70;;
75450;SDS011;64029;48.244;9.188;2023-12-07T12:20:32;9.17;;;6.23;;
75450;SDS011;64029;48.244;9.188;2023-12-07T12:23:00;9.80;;;6.13;;
75450;SDS011;64029;48.244;9.188;2023-12-07T12:25:28;10.20;;;6.27;;
75450;SDS011;64029;48.244;9.188;2023-12-07T12:27:56;8.57;;;5.20;;
75450;SDS011;64029;48.244;9.188;2023-12-07T12:30:26;7.67;;;5.43;;
75450;SDS011;64029;48.244;9.188;2023-12-07T12:32:53;8.80;;;6.10;;
75450;SDS011;64029;48.244;9.188;2023-12-07T12:35:22;8.40;;;5.83;;
75450;SDS011;64029;48.244;9.188;2023-12-07T12:37:49;9.10;;;5.30;;
75450;SDS011;64029;48.244;9.188;2023-12-07T12:40:18;8.07;;;4.83;;
75450;SDS011;64029;48.244;9.188;2023-12-07T12:42:48;8.90;;;5.50;;
75450;SDS011;64029;48.244;9.188;2023-12-07T12:45:16;4.73;;;4.23;;
75450;SDS011;64029;48.244;9.188;2023-12-07T12:47:44;7.10;;;4.83;;
75450;SDS011;64029;48.244;9.188;2023-12-07T12:50:12;6.30;;;4.17;;
75450;SDS011;64029;48.244;9.188;2023-12-07T12:52:59;5.43;;;3.77;;
75450;SDS011;64029;48.244;9.188;2023-12-07T12:55:28;6.10;;;3.67;;
75450;SDS011;64029;48.244;9.188;2023-12-07T12:57:56;7.13;;;4.17;;
75450;SDS011;64029;48.244;9.188;2023-12-07T13:00:24;4.80;;;3.93;;
75450;SDS011;64029;48.244;9.188;2023-12-07T13:02:51;5.97;;;4.40;;
75450;SDS011;64029;48.244;9.188;2023-12-07T13:05:18;4.70;;;3.73;;
75450;SDS011;64029;48.244;9.188;2023-12-07T13:07:44;6.30;;;3.50;;
75450;SDS011;64029;48.244;9.188;2023-12-07T13:10:13;6.23;;;3.87;;
75450;SDS011;64029;48.244;9.188;2023-12-07T13:12:42;6.30;;;3.90;;
75450;SDS011;64029;48.244;9.188;2023-12-07T13:15:10;3.50;;;2.60;;
75450;SDS011;64029;48.244;9.188;2023-12-07T13:17:38;5.73;;;3.40;;
75450;SDS011;64029;48.244;9.188;2023-12-07T13:20:05;6.57;;;3.37;;
75450;SDS011;64029;48.244;9.188;2023-12-07T13:22:35;3.33;;;2.67;;
75450;SDS011;64029;48.244;9.188;2023-12-07T13:25:02;4.30;;;3.10;;
75450;SDS011;64029;48.244;9.188;2023-12-07T13:27:30;7.80;;;2.90;;
75450;SDS011;64029;48.244;9.188;2023-12-07T13:29:59;3.07;;;2.53;;
75450;SDS011;64029;48.244;9.188;2023-12-07T13:32:26;4.23;;;3.37;;
75450;SDS011;64029;48.244;9.188;2023-12-07T13:34:53;5.47;;;3.87;;
75450;SDS011;64029;48.244;9.188;2023-12-07T13:37:20;4.10;;;3.00;;
75450;SDS011;64029;48.244;9.188;2023-12-07T13:39:47;4.27;;;3.17;;
75450;SDS011;64029;48.244;9.188;2023-12-07T13:42:18;4.03;;;3.20;;
75450;SDS011;64029;48.244;9.188;2023-12-07T13:44:45;3.73;;;3.23;;
75450;SDS011;64029;48.244;9.188;2023-12-07T13:47:16;4.80;;;3.33;;
75450;SDS011;64029;48.244;9.188;2023-12-07T13:49:45;4.20;;;3.30;;
75450;SDS011;64029;48.244;9.188;2023-12-07T13:52:14;4.07;;;3.40;;
75450;SDS011;64029;48.244;9.188;2023-12-07T13:54:42;4.43;;;3.30;;
75450;SDS011;64029;48.244;9.188;2023-12-07T13:57:09;7.37;;;4.17;;
75450;SDS011;64029;48.244;9.188;2023-12-07T13:59:37;7.67;;;3.10;;
75450;SDS011;64029;48.244;9.188;2023-12-07T14:02:05;9.47;;;3.53;;
75450;SDS011;64029;48.244;9.188;2023-12-07T14:04:33;3.43;;;3.13;;
75450;SDS011;64029;48.244;9.188;2023-12-07T14:07:07;4.33;;;3.27;;
75450;SDS011;64029;48.244;9.188;2023-12-07T14:09:35;5.13;;;3.10;;
75450;SDS011;64029;48.244;9.188;2023-12-07T14:12:02;5.33;;;3.53;;
75450;SDS011;64029;48.244;9.188;2023-12-07T14:14:30;5.80;;;4.10;;
75450;SDS011;64029;48.244;9.188;2023-12-07T14:16:57;4.63;;;3.73;;
75450;SDS011;64029;48.244;9.188;2023-12-07T14:19:24;6.30;;;3.80;;
75450;SDS011;64029;48.244;9.188;2023-12-07T14:21:53;7.50;;;4.13;;
75450;SDS011;64029;48.244;9.188;2023-12-07T14:24:20;6.43;;;4.00;;
75450;SDS011;64029;48.244;9.188;2023-12-07T14:26:47;6.33;;;4.40;;
75450;SDS011;64029;48.244;9.188;2023-12-07T14:29:14;6.30;;;4.23;;
75450;SDS011;64029;48.244;9.188;2023-12-07T14:31:43;9.63;;;5.17;;
75450;SDS011;64029;48.244;9.188;2023-12-07T14:34:10;7.30;;;5.33;;
75450;SDS011;64029;48.244;9.188;2023-12-07T14:36:38;9.13;;;6.13;;
75450;SDS011;64029;48.244;9.188;2023-12-07T14:39:08;13.53;;;6.60;;